createdAt,value
2023-02-22T00:03:05.479Z,7
2023-02-22T00:23:05.488Z,6.37
2023-02-22T00:43:05.537Z,5.97
2023-02-22T01:03:05.600Z,5.57
2023-02-22T01:23:05.582Z,5.22
2023-02-22T01:43:05.692Z,4.94
2023-02-22T02:03:05.724Z,4.67
2023-02-22T02:23:05.759Z,4.48
2023-02-22T02:43:05.766Z,4.11
2023-02-22T03:03:05.813Z,3.96
2023-02-22T03:23:05.930Z,3.8
2023-02-22T03:43:05.863Z,3.53
2023-02-22T04:03:05.973Z,3.27
2023-02-22T04:23:06.009Z,3.18
2023-02-22T04:43:06.047Z,3.09
2023-02-22T05:03:06.096Z,3.04
2023-02-22T05:23:06.240Z,2.98
2023-02-22T05:43:06.369Z,3.02
2023-02-22T06:03:06.261Z,2.98
2023-02-22T06:23:06.299Z,3.28
2023-02-22T06:43:06.397Z,3.3
2023-02-22T07:03:06.477Z,3.66
2023-02-22T07:23:06.365Z,4.14
2023-02-22T07:43:07.092Z,4.82
2023-02-22T08:03:06.532Z,5.66
2023-02-22T08:23:06.602Z,6.51
2023-02-22T08:43:06.515Z,7.45
2023-02-22T09:03:06.597Z,8.51
2023-02-22T09:23:06.710Z,9.38
2023-02-22T09:43:06.858Z,10.19
2023-02-22T10:03:06.788Z,10.48
2023-02-22T10:23:06.829Z,11.06
2023-02-22T10:43:06.754Z,11.8
2023-02-22T11:03:06.862Z,12.79
2023-02-22T11:23:06.929Z,13.77
2023-02-22T11:43:06.844Z,15.04
2023-02-22T12:03:06.914Z,15.78
2023-02-22T12:23:07.006Z,15.94
2023-02-22T12:43:07.041Z,16.77
2023-02-22T13:03:07.119Z,16.17
2023-02-22T13:23:07.155Z,16.88
2023-02-22T13:43:07.075Z,17.11
2023-02-22T14:03:07.264Z,17.11
2023-02-22T14:23:07.178Z,16.91
2023-02-22T14:43:07.122Z,16.12
2023-02-22T15:03:07.219Z,16.19
2023-02-22T15:23:07.292Z,15.14
2023-02-22T15:43:07.351Z,14.4
2023-02-22T16:03:07.280Z,13.72
2023-02-22T16:23:07.513Z,12.8
2023-02-22T16:43:07.448Z,11.77
2023-02-22T17:03:07.383Z,10.88
2023-02-22T17:23:07.338Z,10.19
2023-02-22T17:43:07.587Z,9.6
2023-02-22T18:03:07.663Z,9.11
2023-02-22T18:23:07.572Z,8.85
2023-02-22T18:43:07.617Z,8.68
2023-02-22T19:03:07.574Z,8.59
2023-02-22T19:23:07.660Z,8.54
2023-02-22T19:43:07.825Z,8.53
2023-02-22T20:03:08.043Z,8.55
2023-02-22T20:23:08.264Z,8.58
2023-02-22T20:43:07.844Z,8.63
2023-02-22T21:03:07.877Z,8.51
2023-02-22T21:23:07.947Z,8.59
2023-02-22T21:43:07.985Z,8.66
2023-02-22T22:03:07.961Z,8.6
2023-02-22T22:23:07.939Z,8.4
2023-02-22T22:43:08.146Z,8.34
2023-02-22T23:03:08.197Z,8.34
2023-02-22T23:23:08.159Z,8.26
2023-02-22T23:43:08.244Z,8.18
